Aeroporto :
LOGIN :

Iscrizione | Disclaimer

   EN    FR    IT 

 










Sommario :    VFR   VFR Marginale   IFR   IFR Intensivo   IFR Molto Intensivo
Visibilità : 
Base nubi : 
>= 8 km
>= 3000ft
5 / 8 km
1000 / 3000 ft
1500m / 5 km
500 / 1000 ft
800 / 1500m
200 / 500 ft
< 800m
< 200 ft
Simboli :   Temporali  Nebbia  Neve Forte  Precipitazioni Forti  Vento > 20 kt
SIGMETs :   Varie  Temporali  Ghiacco  Turbolenza  Onda orograficha  Ceneri Vulcaniche






- Altitudine del aeroporto : 279 ft
- Codice IATA : TGR


DAUK - Touggourt Sidi Mahdi

ULTIMO METAR :
  • 011800Z 35009KT 4000 SA NSC 33/12 Q1008

METARs OBSOLETI :
  • 011700Z 34008KT 4000 SA NSC 34/12 Q1008
  • 011600Z 34007KT 4000 SA NSC 34/12 Q1008

TAF TAF DAUK
Valido dal 01 a 18 ore il 02 a 03 ore UTC


011700Z 0118/0203 04012KT 6000 FEW046
TEMPO 0118/0122 06022KT 4000 DRSA FEW040TCU



MetMap, La meteo Aeronautica in un colpo d'occhio ! - Copyright ORBIFLY Dicembre 2007 - Disclaimer

ORBIFLY MET'MAP TEAM :

Programmazione e sviluppo : Alexandra Zaïnal
Concezione : Baudouin d'Aumeries
Aiuto per la programmazione : Marc-Olivier Méhu
Supporto tecnico e logistico : Manuel Goepfert
Aiuto per la traduzione : Arnaldo La Scala

Contatto : metmap@orbifly.com




FONTI E CREDITI :

   NOAA